Flight Track Log - Related Links

Times and Time Zones

All times are in EST time to prevent confusion due to time zone crossing. See the AAY863 flight status page for this flight to view local times or setup timezone preferences in your user account.

Time Position Orientation Groundspeed Altitude Reporting Facility
EST Latitude Longitude Course Direction KTS MPH feet Rate Location/Type
Sun 07:51:32 PM 41.8542 -91.7878 143° Southeast 238 274 4,000  Level Chicago Center
Sun 07:52:34 PM 41.7822 -91.7556 162° South 292 336 7,600 3,339 Climbing Chicago Center
Sun 07:53:36 PM 41.6897 -91.7053 158° South 301 346 10,900 2,270 Climbing Chicago Center
Sun 07:55:39 PM 41.4897 -91.5767 154° Southeast 441 507 14,600 1,946 Climbing Chicago Center
Sun 07:56:00 PM 40.8638 -90.8471 143° Southeast  Level FlightAware Approximate
Sun 07:56:41 PM 41.3947 -91.4614 138° Southeast 465 535 16,900  Level Chicago Center
Sun 07:57:43 PM 41.2956 -91.3433 138° Southeast 478 550 18,600 1,871 Climbing Chicago Center
Sun 07:59:00 PM 41.1953 -91.2236 138° Southeast  Level FlightAware Approximate
Sun 07:59:47 PM 41.0619 -91.0717 138° Southeast 515 593 22,700  Level Chicago Center
Sun 08:01:50 PM 40.8364 -90.8089 139° Southeast 541 623 25,700 1,395 Climbing Chicago Center
Sun 08:02:52 PM 40.7200 -90.6747 139° Southeast 551 634 27,000 1,355 Climbing Chicago Center
Sun 08:03:54 PM 40.6025 -90.5383 139° Southeast 561 646 28,500 1,839 Climbing Chicago Center
Sun 08:04:56 PM 40.4642 -90.3786 139° Southeast 558 642 30,800 1,707 Climbing Chicago Center
Sun 08:05:57 PM 40.3508 -90.2506 139° Southeast 548 631 32,000 1,073 Climbing Chicago Center
Sun 08:06:59 PM 40.2369 -90.1217 139° Southeast 546 628 33,000 451 Climbing Chicago Center
Sun 08:08:10 PM 40.0997 -89.9678 139° Southeast 545 627 33,000  Level Kansas City Center
Sun 08:09:12 PM 39.9839 -89.8375 139° Southeast 551 634 33,000  Level Kansas City Center
Sun 08:10:13 PM 39.8678 -89.7083 139° Southeast 550 633 33,000  Level Kansas City Center
Sun 08:11:15 PM 39.7497 -89.5811 140° Southeast 552 635 33,000  Level Kansas City Center
Sun 08:12:16 PM 39.6253 -89.4556 142° Southeast 551 634 33,000  Level Kansas City Center
Sun 08:14:10 PM 39.4025 -89.2267 142° Southeast 542 624 33,000  Level Indianapolis Center
Sun 08:15:13 PM 39.2739 -89.0958 142° Southeast 543 625 33,000  Level Chicago Center
Sun 08:16:14 PM 39.1550 -88.9742 142° Southeast 545 627 33,000  Level Chicago Center
Sun 08:17:14 PM 39.0169 -88.8386 143° Southeast 546 628 33,000  Level Indianapolis Center
Sun 08:18:15 PM 38.8994 -88.7181 141° Southeast 542 624 33,000  Level Indianapolis Center
Sun 08:19:16 PM 38.7819 -88.6003 142° Southeast 537 618 33,000  Level Indianapolis Center
Sun 08:20:18 PM 38.6614 -88.4817 142° Southeast 541 623 33,000  Level Indianapolis Center
Sun 08:21:19 PM 38.5425 -88.3622 142° Southeast 542 624 33,000  Level Indianapolis Center
Sun 08:22:20 PM 38.4242 -88.2458 142° Southeast 540 621 33,000  Level Indianapolis Center
Sun 08:24:16 PM 38.1833 -88.0106 142° Southeast 541 623 33,000  Level Memphis Center
Sun 08:25:24 PM 38.0661 -87.8969 143° Southeast 541 623 33,000  Level Indianapolis Center
Sun 08:26:26 PM 37.9475 -87.7819 143° Southeast 540 621 33,000  Level Indianapolis Center
Sun 08:28:22 PM 37.6803 -87.6117 153° Southeast 519 597 33,000  Level Memphis Center
Sun 08:29:24 PM 37.5489 -87.5300 154° Southeast 520 598 33,000  Level Memphis Center
Sun 08:30:25 PM 37.4153 -87.4497 154° Southeast 523 602 33,000  Level Memphis Center
Sun 08:31:27 PM 37.2831 -87.3692 154° Southeast 524 603 33,000  Level Memphis Center
Sun 08:32:28 PM 37.1503 -87.2889 154° Southeast 524 603 33,000  Level Memphis Center
Sun 08:33:30 PM 37.0192 -87.2083 154° Southeast 521 600 33,000  Level Memphis Center
Sun 08:34:31 PM 36.8889 -87.1289 154° Southeast 517 595 33,000  Level Memphis Center
Sun 08:35:33 PM 36.7583 -87.0506 154° Southeast 516 594 33,000  Level Memphis Center
Sun 08:36:34 PM 36.6064 -86.9597 154° Southeast 514 592 33,000  Level Memphis Center
Sun 08:37:35 PM 36.4764 -86.8825 154° Southeast 512 589 33,000  Level Memphis Center
Sun 08:38:37 PM 36.3675 -86.8192 155° Southeast 510 587 33,000  Level Memphis Center
Sun 08:39:38 PM 36.2314 -86.7378 154° Southeast 509 586 33,000  Level Memphis Center
Sun 08:40:40 PM 36.1025 -86.6636 155° Southeast 506 582 33,000  Level Memphis Center
Sun 08:41:41 PM 35.9717 -86.5994 158° South 500 575 33,000  Level Memphis Center
Sun 08:42:43 PM 35.8181 -86.5217 158° South 505 581 33,000  Level Memphis Center
Sun 08:43:44 PM 35.6850 -86.4556 158° South 509 586 33,000  Level Memphis Center
Sun 08:44:46 PM 35.5533 -86.3917 158° South 505 581 33,000  Level Memphis Center
Sun 08:45:35 PM 35.4444 -86.3356 157° South 504 580 33,000  Level Atlanta Center
Sun 08:46:35 PM 35.3119 -86.2733 159° South 510 587 33,000  Level Atlanta Center
Sun 08:47:35 PM 35.1917 -86.2319 164° South 503 579 33,000  Level Atlanta Center
Sun 08:48:35 PM 35.0483 -86.2028 171° South 490 564 33,000  Level Atlanta Center
Sun 08:49:35 PM 34.9150 -86.1944 177° South 485 558 33,000  Level Atlanta Center
Sun 08:50:35 PM 34.7839 -86.1631 169° South 480 552 33,000  Level Atlanta Center
Sun 08:51:35 PM 34.6492 -86.1067 161° South 487 560 33,000  Level Atlanta Center
Sun 08:52:35 PM 34.5147 -86.0456 159° South 494 568 33,000  Level Atlanta Center
Sun 08:53:35 PM 34.3819 -85.9869 160° South 500 575 33,000  Level Atlanta Center
Sun 08:54:35 PM 34.2514 -85.9286 160° South 505 581 33,000  Level Atlanta Center
Sun 08:55:35 PM 34.1167 -85.8681 160° South 505 581 33,000  Level Atlanta Center
Sun 08:56:35 PM 33.9839 -85.8125 161° South 505 581 33,000  Level Atlanta Center
Sun 08:59:35 PM 33.6042 -85.6500 161° South 511 588 33,000  Level Atlanta Center
Sun 09:00:35 PM 33.4672 -85.5928 161° South 511 588 33,000  Level Atlanta Center
Sun 09:01:35 PM 33.3364 -85.5381 161° South 511 588 33,000  Level Atlanta Center
Sun 09:02:35 PM 33.2119 -85.4764 157° South 517 595 33,000  Level Atlanta Center
Sun 09:03:35 PM 33.0664 -85.4194 162° South 511 588 33,000  Level Atlanta Center
Sun 09:04:35 PM 32.9231 -85.3528 159° South 511 588 33,000  Level Atlanta Center
Sun 09:05:00 PM 32.9794 -85.3425 161° South  Level FlightAware Approximate
Sun 09:05:35 PM 32.7900 -85.2967 160° South 505 581 33,000  Level Atlanta Center
Sun 09:06:35 PM 32.6531 -85.2378 160° South 502 578 33,000  Level Atlanta Center
Sun 09:07:35 PM 32.5261 -85.1844 160° South 508 585 33,000  Level Atlanta Center
Sun 09:08:35 PM 32.3931 -85.1286 160° South 501 577 33,000  Level Atlanta Center
Sun 09:09:35 PM 32.2600 -85.0753 161° South 506 582 33,000  Level Atlanta Center
Sun 09:11:23 PM 32.0283 -84.9756 160° South 497 572 33,000  Level Jacksonville Center
Sun 09:12:23 PM 31.8978 -84.9211 161° South 497 572 33,000  Level Jacksonville Center
Sun 09:13:23 PM 31.7836 -84.8772 162° South 497 572 33,000  Level Jacksonville Center
Sun 09:14:23 PM 31.6550 -84.8206 159° South 497 572 33,000  Level Jacksonville Center
Sun 09:15:23 PM 31.5283 -84.7694 161° South 497 572 33,000  Level Jacksonville Center
Sun 09:16:23 PM 31.4019 -84.7133 159° South 491 565 33,000  Level Jacksonville Center
Sun 09:17:23 PM 31.2817 -84.6478 155° Southeast 485 558 33,000  Level Jacksonville Center
Sun 09:18:23 PM 31.1594 -84.5800 155° Southeast 485 558 33,000  Level Jacksonville Center
Sun 09:19:23 PM 31.0392 -84.5097 153° Southeast 480 552 33,000  Level Jacksonville Center
Sun 09:20:23 PM 30.9169 -84.4447 155° Southeast 480 552 33,000  Level Jacksonville Center
Sun 09:21:23 PM 30.7967 -84.3750 154° Southeast 480 552 33,000  Level Jacksonville Center
Sun 09:22:23 PM 30.6761 -84.3081 154° Southeast 480 552 33,000 -50 Level Jacksonville Center
Sun 09:23:23 PM 30.5392 -84.2311 154° Southeast 486 559 32,900 -50 Descending Jacksonville Center
Sun 09:24:23 PM 30.4356 -84.1744 155° Southeast 481 554 32,900 50 Level Jacksonville Center
Sun 09:25:23 PM 30.3108 -84.1053 154° Southeast 481 554 33,000  Climbing Jacksonville Center
Sun 09:26:23 PM 30.1903 -84.0364 154° Southeast 481 554 32,900  Descending Jacksonville Center
Sun 09:27:23 PM 30.0678 -83.9703 155° Southeast 481 554 33,000  Climbing Jacksonville Center
Sun 09:28:23 PM 29.9494 -83.9067 155° Southeast 481 554 32,900 -50 Descending Jacksonville Center
Sun 09:29:23 PM 29.8267 -83.8383 154° Southeast 481 554 32,900 50 Level Jacksonville Center
Sun 09:30:23 PM 29.7039 -83.7725 155° Southeast 481 554 33,000 -500 Climbing Jacksonville Center
Sun 09:31:23 PM 29.5833 -83.7044 154° Southeast 481 554 31,900 -1,500 Descending Jacksonville Center
Sun 09:32:23 PM 29.4606 -83.6392 155° Southeast 481 554 30,000 -1,950 Descending Jacksonville Center
Sun 09:33:23 PM 29.3397 -83.5739 155° Southeast 481 554 28,000 -2,100 Descending Jacksonville Center
Sun 09:34:23 PM 29.2169 -83.5064 154° Southeast 481 554 25,800 -1,900 Descending Jacksonville Center
Sun 09:35:23 PM 29.0983 -83.4319 151° Southeast 481 554 24,200 -950 Descending Jacksonville Center
Sun 09:36:23 PM 28.9858 -83.3603 151° Southeast 475 547 23,900 -1,300 Descending Jacksonville Center
Sun 09:37:23 PM 28.8694 -83.2861 151° Southeast 470 541 21,600 -2,407 Descending Jacksonville Center
Sun 09:39:20 PM 28.6333 -83.1333 150° Southeast 457 526 16,800 -2,339 Descending Tampa TRACON
Sun 09:40:20 PM 28.5333 -83.0667 150° Southeast 424 488 14,700 -2,100 Descending Tampa TRACON
Sun 09:41:20 PM 28.4333 -83.0167 156° South 401 461 12,600 -1,850 Descending Tampa TRACON
Sun 09:42:20 PM 28.3333 -82.9500 150° Southeast 380 437 11,000 -1,150 Descending Tampa TRACON
Sun 09:43:20 PM 28.2500 -82.9167 161° South 318 366 10,300 -1,150 Descending Tampa TRACON
Sun 09:44:20 PM 28.1833 -82.8667 147° Southeast 300 345 8,700 -1,400 Descending Tampa TRACON
Sun 09:45:20 PM 28.1000 -82.8500 170° South 288 331 7,500 -1,316 Descending Tampa TRACON
Sun 09:46:14 PM 28.0333 -82.8333 168° South 276 318 6,200 -1,474 Descending Tampa TRACON
Sun 09:47:14 PM 27.9667 -82.8167 168° South 266 306 4,700 -1,550 Descending Tampa TRACON
Sun 09:48:14 PM 27.9000 -82.7833 156° South 223 257 3,100 -1,048 Descending Tampa TRACON
Sun 09:49:20 PM 27.8333 -82.7833 180° South 168 193 2,500 -571 Descending Tampa TRACON
Sun 09:50:20 PM 27.8167 -82.7333 111° Southeast 148 170 1,900 -500 Descending Tampa TRACON
Sun 09:51:20 PM 27.8333 -82.7000 61° Northeast 140 161 1,500 -600 Descending Tampa TRACON
Sun 09:52:20 PM 27.8667 -82.6833 24° Northeast 129 148 700 -800 Descending Tampa TRACON

Login

Don't have an account? Register now (free) for customized features, flight alerts, and more!